Terminal Aerodrome Forecast
Issued by NWS

Home | Current Version | Previous Version | Text Only | Print | Product List | Glossary On
Versions: 1 2 3 4 5 6 7 8 9 10 11 12
000
FTUS45 KFGZ 262336
TAFGCN
TAF
KGCN 262336Z 2700/2724 23010G18KT P6SM SCT050 BKN070
     FM270100 22010KT P6SM BKN050
     FM270900 22014G24KT P6SM OVC020
     FM271700 22020G30KT 3SM -SHSN OVC020=

USA.gov is the U.S. government's official web portal to all federal, state and local government web resources and services.